sensor_id;sensor_type;location;lat;lon;timestamp;pressure;altitude;pressure_sealevel;temperature;humidity
79129;BME280;68529;43.286;23.360;2023-05-15T00:00:05;99135.78;;;14.12;73.23
79129;BME280;68529;43.286;23.360;2023-05-15T00:02:35;99130.88;;;14.04;73.46
79129;BME280;68529;43.286;23.360;2023-05-15T00:05:00;99119.91;;;13.94;73.76
79129;BME280;68529;43.286;23.360;2023-05-15T00:07:25;99099.09;;;13.88;73.85
79129;BME280;68529;43.286;23.360;2023-05-15T00:09:51;99093.91;;;13.87;74.21
79129;BME280;68529;43.286;23.360;2023-05-15T00:12:17;99103.38;;;13.91;74.19
79129;BME280;68529;43.286;23.360;2023-05-15T00:14:42;99107.47;;;13.96;73.83
79129;BME280;68529;43.286;23.360;2023-05-15T00:17:07;99108.91;;;14.04;73.56
79129;BME280;68529;43.286;23.360;2023-05-15T00:19:34;99091.09;;;14.07;73.35
79129;BME280;68529;43.286;23.360;2023-05-15T00:21:59;99106.88;;;14.09;73.43
79129;BME280;68529;43.286;23.360;2023-05-15T00:24:24;99106.72;;;14.12;73.20
79129;BME280;68529;43.286;23.360;2023-05-15T00:26:50;99091.88;;;14.09;73.02
79129;BME280;68529;43.286;23.360;2023-05-15T00:29:15;99096.22;;;14.10;73.23
79129;BME280;68529;43.286;23.360;2023-05-15T00:31:41;99099.66;;;14.12;73.14
79129;BME280;68529;43.286;23.360;2023-05-15T00:34:06;99107.78;;;14.08;73.11
79129;BME280;68529;43.286;23.360;2023-05-15T00:36:31;99098.19;;;14.07;72.96
79129;BME280;68529;43.286;23.360;2023-05-15T00:38:57;99092.97;;;14.05;72.92
79129;BME280;68529;43.286;23.360;2023-05-15T00:41:23;99092.25;;;14.01;72.74
79129;BME280;68529;43.286;23.360;2023-05-15T00:43:49;99093.06;;;14.04;72.69
79129;BME280;68529;43.286;23.360;2023-05-15T00:46:16;99080.91;;;13.99;72.51
79129;BME280;68529;43.286;23.360;2023-05-15T00:48:42;99077.50;;;13.80;72.97
79129;BME280;68529;43.286;23.360;2023-05-15T00:51:08;99075.16;;;13.74;73.33
79129;BME280;68529;43.286;23.360;2023-05-15T00:53:34;99077.50;;;13.80;72.97
79129;BME280;68529;43.286;23.360;2023-05-15T00:55:59;99068.88;;;13.77;73.09
79129;BME280;68529;43.286;23.360;2023-05-15T00:58:26;99053.84;;;13.79;72.96
79129;BME280;68529;43.286;23.360;2023-05-15T01:00:53;99046.28;;;13.71;73.15
79129;BME280;68529;43.286;23.360;2023-05-15T01:03:19;99062.72;;;13.76;72.96
79129;BME280;68529;43.286;23.360;2023-05-15T01:05:45;99064.59;;;13.74;72.67
79129;BME280;68529;43.286;23.360;2023-05-15T01:08:25;99073.38;;;13.75;73.14
79129;BME280;68529;43.286;23.360;2023-05-15T01:10:51;99067.34;;;13.73;72.80
79129;BME280;68529;43.286;23.360;2023-05-15T01:13:21;99061.97;;;13.74;72.64
79129;BME280;68529;43.286;23.360;2023-05-15T01:15:48;99068.00;;;13.76;72.57
79129;BME280;68529;43.286;23.360;2023-05-15T01:18:14;99064.44;;;13.77;72.54
79129;BME280;68529;43.286;23.360;2023-05-15T01:23:57;99060.09;;;13.76;72.44
79129;BME280;68529;43.286;23.360;2023-05-15T01:31:49;99071.50;;;13.60;72.48
79129;BME280;68529;43.286;23.360;2023-05-15T01:34:19;99070.56;;;13.61;72.70
79129;BME280;68529;43.286;23.360;2023-05-15T01:36:50;99047.84;;;13.58;72.62
79129;BME280;68529;43.286;23.360;2023-05-15T01:39:20;99067.38;;;13.54;72.49
79129;BME280;68529;43.286;23.360;2023-05-15T01:42:08;99063.56;;;13.43;72.69
79129;BME280;68529;43.286;23.360;2023-05-15T01:44:36;99066.94;;;13.27;73.13
79129;BME280;68529;43.286;23.360;2023-05-15T01:47:12;99075.91;;;13.05;73.62
79129;BME280;68529;43.286;23.360;2023-05-15T01:49:40;99069.16;;;12.80;74.11
79129;BME280;68529;43.286;23.360;2023-05-15T01:52:21;99047.78;;;12.87;74.13
79129;BME280;68529;43.286;23.360;2023-05-15T01:54:49;99069.78;;;13.04;73.88
79129;BME280;68529;43.286;23.360;2023-05-15T01:57:16;99062.03;;;13.20;73.50
79129;BME280;68529;43.286;23.360;2023-05-15T01:59:43;99056.31;;;13.29;73.13
79129;BME280;68529;43.286;23.360;2023-05-15T02:02:10;99064.00;;;13.33;72.58
79129;BME280;68529;43.286;23.360;2023-05-15T02:04:37;99047.94;;;13.38;72.51
79129;BME280;68529;43.286;23.360;2023-05-15T02:07:03;99045.00;;;13.44;72.36
79129;BME280;68529;43.286;23.360;2023-05-15T02:09:30;99047.66;;;13.44;72.18
79129;BME280;68529;43.286;23.360;2023-05-15T02:11:56;99042.81;;;13.35;72.46
79129;BME280;68529;43.286;23.360;2023-05-15T02:14:23;99033.94;;;13.19;72.74
79129;BME280;68529;43.286;23.360;2023-05-15T02:16:49;99037.81;;;13.12;73.05
79129;BME280;68529;43.286;23.360;2023-05-15T02:19:15;99036.88;;;13.13;73.18
79129;BME280;68529;43.286;23.360;2023-05-15T02:21:40;99034.66;;;13.22;73.01
79129;BME280;68529;43.286;23.360;2023-05-15T02:24:06;99024.50;;;13.32;72.64
79129;BME280;68529;43.286;23.360;2023-05-15T02:26:54;99019.03;;;13.36;72.50
79129;BME280;68529;43.286;23.360;2023-05-15T02:29:36;99014.50;;;13.38;72.44
79129;BME280;68529;43.286;23.360;2023-05-15T02:32:09;99032.13;;;13.38;72.68
79129;BME280;68529;43.286;23.360;2023-05-15T02:34:48;99029.34;;;13.41;72.23
79129;BME280;68529;43.286;23.360;2023-05-15T02:37:21;99024.06;;;13.41;72.30
79129;BME280;68529;43.286;23.360;2023-05-15T02:39:50;99020.41;;;13.43;72.24
79129;BME280;68529;43.286;23.360;2023-05-15T02:42:19;99029.19;;;13.44;72.08
79129;BME280;68529;43.286;23.360;2023-05-15T02:44:46;99028.47;;;13.40;72.14
79129;BME280;68529;43.286;23.360;2023-05-15T02:47:13;99038.03;;;13.43;72.27
79129;BME280;68529;43.286;23.360;2023-05-15T02:49:39;99030.19;;;13.41;72.17
79129;BME280;68529;43.286;23.360;2023-05-15T02:52:05;99034.47;;;13.44;72.16
79129;BME280;68529;43.286;23.360;2023-05-15T02:54:31;99032.59;;;13.46;71.87
79129;BME280;68529;43.286;23.360;2023-05-15T02:56:56;99030.75;;;13.48;71.95
79129;BME280;68529;43.286;23.360;2023-05-15T02:59:21;99032.53;;;13.48;72.12
79129;BME280;68529;43.286;23.360;2023-05-15T03:01:47;99038.16;;;13.40;72.38
79129;BME280;68529;43.286;23.360;2023-05-15T03:04:15;99046.25;;;13.37;72.43
79129;BME280;68529;43.286;23.360;2023-05-15T03:06:41;99050.69;;;13.36;72.42
79129;BME280;68529;43.286;23.360;2023-05-15T03:09:06;99057.59;;;13.39;72.25
79129;BME280;68529;43.286;23.360;2023-05-15T03:11:32;99060.00;;;13.43;72.11
79129;BME280;68529;43.286;23.360;2023-05-15T03:13:57;99043.88;;;13.50;72.00
79129;BME280;68529;43.286;23.360;2023-05-15T03:16:27;99047.28;;;13.52;72.12
79129;BME280;68529;43.286;23.360;2023-05-15T03:18:52;99055.13;;;13.53;71.96
79129;BME280;68529;43.286;23.360;2023-05-15T03:21:18;99039.28;;;13.53;72.10
79129;BME280;68529;43.286;23.360;2023-05-15T03:23:44;99031.13;;;13.58;72.00
79129;BME280;68529;43.286;23.360;2023-05-15T03:26:09;99048.53;;;13.62;72.06
79129;BME280;68529;43.286;23.360;2023-05-15T03:28:36;99046.97;;;13.58;72.22
79129;BME280;68529;43.286;23.360;2023-05-15T03:31:01;99065.53;;;13.56;72.28
79129;BME280;68529;43.286;23.360;2023-05-15T03:33:29;99054.19;;;13.54;72.12
79129;BME280;68529;43.286;23.360;2023-05-15T03:35:54;99052.63;;;13.50;72.47
79129;BME280;68529;43.286;23.360;2023-05-15T03:38:20;99041.59;;;13.42;72.72
79129;BME280;68529;43.286;23.360;2023-05-15T03:40:45;99038.66;;;13.48;72.51
79129;BME280;68529;43.286;23.360;2023-05-15T03:43:11;99040.31;;;13.51;72.55
79129;BME280;68529;43.286;23.360;2023-05-15T03:45:37;99048.13;;;13.52;72.66
79129;BME280;68529;43.286;23.360;2023-05-15T03:48:04;99053.25;;;13.55;72.84
79129;BME280;68529;43.286;23.360;2023-05-15T03:50:30;99044.56;;;13.53;72.66
79129;BME280;68529;43.286;23.360;2023-05-15T03:52:55;99048.56;;;13.43;72.93
79129;BME280;68529;43.286;23.360;2023-05-15T03:55:21;99048.28;;;13.49;72.99
79129;BME280;68529;43.286;23.360;2023-05-15T03:57:46;99047.22;;;13.53;72.74
79129;BME280;68529;43.286;23.360;2023-05-15T04:00:12;99054.13;;;13.56;73.20
79129;BME280;68529;43.286;23.360;2023-05-15T04:02:38;99054.69;;;13.62;73.10
79129;BME280;68529;43.286;23.360;2023-05-15T04:05:05;99048.16;;;13.69;72.90
79129;BME280;68529;43.286;23.360;2023-05-15T04:07:32;99051.34;;;13.76;72.83
79129;BME280;68529;43.286;23.360;2023-05-15T04:09:58;99058.09;;;13.81;72.92
79129;BME280;68529;43.286;23.360;2023-05-15T04:12:36;99055.31;;;13.84;73.06
79129;BME280;68529;43.286;23.360;2023-05-15T04:15:21;99060.41;;;13.87;72.76
79129;BME280;68529;43.286;23.360;2023-05-15T04:17:49;99038.47;;;13.87;72.91
79129;BME280;68529;43.286;23.360;2023-05-15T04:20:17;99039.84;;;13.77;73.15
79129;BME280;68529;43.286;23.360;2023-05-15T04:22:43;99037.13;;;13.78;73.18
79129;BME280;68529;43.286;23.360;2023-05-15T04:25:10;99034.19;;;13.84;73.18
79129;BME280;68529;43.286;23.360;2023-05-15T04:27:36;99041.47;;;13.96;72.95
79129;BME280;68529;43.286;23.360;2023-05-15T04:30:03;99030.44;;;14.06;72.93
79129;BME280;68529;43.286;23.360;2023-05-15T04:32:30;99035.16;;;14.16;72.67
79129;BME280;68529;43.286;23.360;2023-05-15T04:34:55;99032.97;;;14.24;72.43
79129;BME280;68529;43.286;23.360;2023-05-15T04:37:21;99030.16;;;14.27;72.34
79129;BME280;68529;43.286;23.360;2023-05-15T04:39:46;99026.22;;;14.36;72.10
79129;BME280;68529;43.286;23.360;2023-05-15T04:42:12;99030.47;;;14.38;72.13
79129;BME280;68529;43.286;23.360;2023-05-15T04:44:37;99025.91;;;14.42;71.92
79129;BME280;68529;43.286;23.360;2023-05-15T04:47:03;99028.63;;;14.40;72.24
79129;BME280;68529;43.286;23.360;2023-05-15T04:49:28;99035.38;;;14.46;72.19
79129;BME280;68529;43.286;23.360;2023-05-15T04:51:54;99044.13;;;14.46;72.22
79129;BME280;68529;43.286;23.360;2023-05-15T04:54:19;99032.53;;;14.49;71.91
79129;BME280;68529;43.286;23.360;2023-05-15T04:56:45;99029.69;;;14.53;72.32
79129;BME280;68529;43.286;23.360;2023-05-15T04:59:10;99019.78;;;14.57;72.01
79129;BME280;68529;43.286;23.360;2023-05-15T05:01:37;99029.19;;;14.63;71.93
79129;BME280;68529;43.286;23.360;2023-05-15T05:04:03;99031.25;;;14.73;71.74
79129;BME280;68529;43.286;23.360;2023-05-15T05:06:28;99046.78;;;14.79;71.59
79129;BME280;68529;43.286;23.360;2023-05-15T05:08:54;99050.88;;;14.85;71.54
79129;BME280;68529;43.286;23.360;2023-05-15T05:11:19;99058.63;;;14.88;71.48
79129;BME280;68529;43.286;23.360;2023-05-15T05:13:45;99046.34;;;14.87;71.44
79129;BME280;68529;43.286;23.360;2023-05-15T05:16:11;99049.69;;;14.90;71.35
79129;BME280;68529;43.286;23.360;2023-05-15T05:18:36;99050.50;;;14.91;71.64
79129;BME280;68529;43.286;23.360;2023-05-15T05:21:02;99041.91;;;14.87;71.63
79129;BME280;68529;43.286;23.360;2023-05-15T05:23:29;99051.19;;;14.79;71.72
79129;BME280;68529;43.286;23.360;2023-05-15T05:25:54;99050.78;;;14.71;72.27
79129;BME280;68529;43.286;23.360;2023-05-15T05:28:20;99059.88;;;14.65;72.43
79129;BME280;68529;43.286;23.360;2023-05-15T05:30:46;99056.44;;;14.63;72.42
79129;BME280;68529;43.286;23.360;2023-05-15T05:33:12;99051.78;;;14.68;72.47
79129;BME280;68529;43.286;23.360;2023-05-15T05:35:37;99058.38;;;14.77;72.47
79129;BME280;68529;43.286;23.360;2023-05-15T05:38:03;99049.25;;;14.82;72.20
79129;BME280;68529;43.286;23.360;2023-05-15T05:40:28;99051.38;;;14.76;72.02
79129;BME280;68529;43.286;23.360;2023-05-15T05:42:54;99048.72;;;14.76;72.11
79129;BME280;68529;43.286;23.360;2023-05-15T05:45:19;99063.25;;;14.84;72.12
79129;BME280;68529;43.286;23.360;2023-05-15T05:47:45;99057.78;;;14.87;72.15
79129;BME280;68529;43.286;23.360;2023-05-15T05:50:10;99044.38;;;14.75;72.33
79129;BME280;68529;43.286;23.360;2023-05-15T05:52:35;99055.78;;;14.75;72.35
79129;BME280;68529;43.286;23.360;2023-05-15T05:55:01;99054.72;;;14.79;72.54
79129;BME280;68529;43.286;23.360;2023-05-15T05:57:27;99052.50;;;14.87;72.29
79129;BME280;68529;43.286;23.360;2023-05-15T05:59:52;99051.13;;;14.96;72.12
79129;BME280;68529;43.286;23.360;2023-05-15T06:02:18;99052.50;;;15.03;71.96
79129;BME280;68529;43.286;23.360;2023-05-15T06:04:43;99057.78;;;15.03;71.95
79129;BME280;68529;43.286;23.360;2023-05-15T06:07:10;99059.56;;;15.02;71.91
79129;BME280;68529;43.286;23.360;2023-05-15T06:09:35;99065.72;;;15.03;71.63
79129;BME280;68529;43.286;23.360;2023-05-15T06:12:00;99057.78;;;15.03;71.95
79129;BME280;68529;43.286;23.360;2023-05-15T06:14:28;99067.94;;;15.10;71.82
79129;BME280;68529;43.286;23.360;2023-05-15T06:16:54;99083.41;;;15.18;71.68
79129;BME280;68529;43.286;23.360;2023-05-15T06:19:19;99084.00;;;15.23;71.75
79129;BME280;68529;43.286;23.360;2023-05-15T06:21:45;99093.72;;;15.23;71.83
79129;BME280;68529;43.286;23.360;2023-05-15T06:24:11;99091.81;;;15.25;72.10
79129;BME280;68529;43.286;23.360;2023-05-15T06:26:36;99079.72;;;15.21;72.07
79129;BME280;68529;43.286;23.360;2023-05-15T06:29:02;99090.03;;;15.25;72.23
79129;BME280;68529;43.286;23.360;2023-05-15T06:31:27;99086.38;;;15.28;72.06
79129;BME280;68529;43.286;23.360;2023-05-15T06:33:52;99074.84;;;15.29;72.04
79129;BME280;68529;43.286;23.360;2023-05-15T06:36:18;99078.44;;;15.28;72.03
79129;BME280;68529;43.286;23.360;2023-05-15T06:38:43;99073.66;;;15.34;72.10
79129;BME280;68529;43.286;23.360;2023-05-15T06:41:09;99068.88;;;15.41;71.99
79129;BME280;68529;43.286;23.360;2023-05-15T06:43:34;99052.72;;;15.45;71.88
79129;BME280;68529;43.286;23.360;2023-05-15T06:45:59;99041.72;;;15.53;72.05
79129;BME280;68529;43.286;23.360;2023-05-15T06:48:25;99032.31;;;15.63;71.61
79129;BME280;68529;43.286;23.360;2023-05-15T06:50:50;99023.00;;;15.71;71.64
79129;BME280;68529;43.286;23.360;2023-05-15T06:53:16;99012.69;;;15.81;71.22
79129;BME280;68529;43.286;23.360;2023-05-15T06:55:42;99012.34;;;15.87;71.20
79129;BME280;68529;43.286;23.360;2023-05-15T06:58:08;99013.25;;;15.86;71.25
79129;BME280;68529;43.286;23.360;2023-05-15T07:00:33;99026.25;;;15.91;71.07
79129;BME280;68529;43.286;23.360;2023-05-15T07:02:58;99024.25;;;15.94;71.19
79129;BME280;68529;43.286;23.360;2023-05-15T07:05:24;99029.66;;;15.93;71.41
79129;BME280;68529;43.286;23.360;2023-05-15T08:54:09;99037.66;;;15.77;74.25
79129;BME280;68529;43.286;23.360;2023-05-15T08:56:35;99046.09;;;15.84;74.11
79129;BME280;68529;43.286;23.360;2023-05-15T08:59:00;99031.91;;;15.85;73.94
79129;BME280;68529;43.286;23.360;2023-05-15T09:01:27;99027.94;;;15.92;73.79
79129;BME280;68529;43.286;23.360;2023-05-15T09:03:52;99032.81;;;15.99;73.05
79129;BME280;68529;43.286;23.360;2023-05-15T09:06:18;99033.38;;;16.04;73.23
79129;BME280;68529;43.286;23.360;2023-05-15T09:08:44;99039.44;;;16.06;73.14
79129;BME280;68529;43.286;23.360;2023-05-15T09:11:11;99027.91;;;16.07;72.94
79129;BME280;68529;43.286;23.360;2023-05-15T09:13:37;99036.41;;;16.12;72.89
79129;BME280;68529;43.286;23.360;2023-05-15T09:16:03;99034.50;;;16.14;72.72
79129;BME280;68529;43.286;23.360;2023-05-15T09:18:29;99040.31;;;16.21;72.40
79129;BME280;68529;43.286;23.360;2023-05-15T09:20:54;99035.75;;;16.23;72.31
79129;BME280;68529;43.286;23.360;2023-05-15T09:23:25;99034.16;;;16.20;72.52
79129;BME280;68529;43.286;23.360;2023-05-15T09:25:51;99026.09;;;16.22;72.57
79129;BME280;68529;43.286;23.360;2023-05-15T09:28:29;99025.91;;;16.25;72.28
79129;BME280;68529;43.286;23.360;2023-05-15T09:31:00;99015.41;;;16.23;72.57
79129;BME280;68529;43.286;23.360;2023-05-15T09:33:34;99022.44;;;16.24;72.68
79129;BME280;68529;43.286;23.360;2023-05-15T09:36:01;99022.63;;;16.21;73.01
79129;BME280;68529;43.286;23.360;2023-05-15T09:38:26;99021.66;;;16.22;73.00
79129;BME280;68529;43.286;23.360;2023-05-15T09:41:05;99026.19;;;16.20;72.87
79129;BME280;68529;43.286;23.360;2023-05-15T09:43:38;99022.13;;;16.15;73.09
79129;BME280;68529;43.286;23.360;2023-05-15T09:46:05;99023.56;;;16.20;72.92
79129;BME280;68529;43.286;23.360;2023-05-15T09:48:31;99024.50;;;16.19;72.97
79129;BME280;68529;43.286;23.360;2023-05-15T09:50:57;99010.31;;;16.20;73.06
79129;BME280;68529;43.286;23.360;2023-05-15T09:53:23;99009.63;;;16.17;73.41
79129;BME280;68529;43.286;23.360;2023-05-15T09:55:49;99018.44;;;16.17;73.28
79129;BME280;68529;43.286;23.360;2023-05-15T09:58:17;98999.81;;;16.19;73.06
79129;BME280;68529;43.286;23.360;2023-05-15T10:00:44;98996.88;;;16.23;72.96
79129;BME280;68529;43.286;23.360;2023-05-15T10:03:10;99000.44;;;16.22;72.94
79129;BME280;68529;43.286;23.360;2023-05-15T10:05:36;99009.75;;;16.29;73.06
79129;BME280;68529;43.286;23.360;2023-05-15T10:08:02;99021.66;;;16.37;72.88
79129;BME280;68529;43.286;23.360;2023-05-15T10:10:28;99023.19;;;16.41;72.82
79129;BME280;68529;43.286;23.360;2023-05-15T10:12:56;99013.91;;;16.48;72.98
79129;BME280;68529;43.286;23.360;2023-05-15T10:15:26;99023.97;;;16.57;72.91
79129;BME280;68529;43.286;23.360;2023-05-15T10:17:53;99004.19;;;16.62;72.42
79129;BME280;68529;43.286;23.360;2023-05-15T10:20:23;99021.50;;;16.68;72.34
79129;BME280;68529;43.286;23.360;2023-05-15T10:22:50;99023.97;;;16.71;72.21
79129;BME280;68529;43.286;23.360;2023-05-15T10:28:08;99017.91;;;16.69;72.38
79129;BME280;68529;43.286;23.360;2023-05-15T10:30:34;99029.09;;;16.74;72.30
79129;BME280;68529;43.286;23.360;2023-05-15T10:33:01;99028.91;;;16.77;71.96
79129;BME280;68529;43.286;23.360;2023-05-15T10:35:28;99034.94;;;16.79;72.01
79129;BME280;68529;43.286;23.360;2023-05-15T10:37:55;99037.59;;;16.79;71.91
79129;BME280;68529;43.286;23.360;2023-05-15T10:40:22;99045.94;;;16.73;71.84
79129;BME280;68529;43.286;23.360;2023-05-15T10:42:48;99043.19;;;16.74;72.10
79129;BME280;68529;43.286;23.360;2023-05-15T10:45:13;99043.28;;;16.73;72.14
79129;BME280;68529;43.286;23.360;2023-05-15T10:47:40;99053.03;;;16.72;72.40
79129;BME280;68529;43.286;23.360;2023-05-15T10:50:07;99048.69;;;16.71;72.40
79129;BME280;68529;43.286;23.360;2023-05-15T10:52:36;99051.25;;;16.73;72.29
79129;BME280;68529;43.286;23.360;2023-05-15T10:55:07;99053.16;;;16.71;72.45
79129;BME280;68529;43.286;23.360;2023-05-15T10:57:33;99057.59;;;16.70;72.58
79129;BME280;68529;43.286;23.360;2023-05-15T10:59:58;99067.16;;;16.73;72.63
79129;BME280;68529;43.286;23.360;2023-05-15T11:02:27;99072.47;;;16.73;72.58
79129;BME280;68529;43.286;23.360;2023-05-15T11:05:01;99082.31;;;16.71;72.62
79129;BME280;68529;43.286;23.360;2023-05-15T11:07:27;99075.41;;;16.68;72.36
79129;BME280;68529;43.286;23.360;2023-05-15T11:09:54;99078.13;;;16.67;72.47
79129;BME280;68529;43.286;23.360;2023-05-15T11:12:21;99079.09;;;16.66;72.42
79129;BME280;68529;43.286;23.360;2023-05-15T11:17:25;99080.22;;;16.62;72.52
79129;BME280;68529;43.286;23.360;2023-05-15T11:22:16;99081.94;;;16.63;72.87
79129;BME280;68529;43.286;23.360;2023-05-15T11:24:58;99086.28;;;16.64;72.55
79129;BME280;68529;43.286;23.360;2023-05-15T11:30:33;99071.91;;;16.68;72.23
79129;BME280;68529;43.286;23.360;2023-05-15T11:33:01;99061.84;;;16.73;72.30
79129;BME280;68529;43.286;23.360;2023-05-15T11:37:58;99057.69;;;16.83;72.25
79129;BME280;68529;43.286;23.360;2023-05-15T11:40:26;99045.19;;;16.85;71.99
79129;BME280;68529;43.286;23.360;2023-05-15T11:43:07;99039.38;;;16.93;71.93
79129;BME280;68529;43.286;23.360;2023-05-15T11:45:38;99036.66;;;16.80;71.69
79129;BME280;68529;43.286;23.360;2023-05-15T11:48:06;99024.91;;;16.70;71.94
79129;BME280;68529;43.286;23.360;2023-05-15T11:50:33;99031.56;;;16.77;72.24
79129;BME280;68529;43.286;23.360;2023-05-15T11:53:06;99022.63;;;16.78;71.57
79129;BME280;68529;43.286;23.360;2023-05-15T11:55:34;99025.66;;;16.86;71.52
79129;BME280;68529;43.286;23.360;2023-05-15T11:58:00;99016.56;;;16.90;71.48
79129;BME280;68529;43.286;23.360;2023-05-15T12:00:26;99008.28;;;16.95;71.71
79129;BME280;68529;43.286;23.360;2023-05-15T12:02:51;99009.63;;;17.02;71.95
79129;BME280;68529;43.286;23.360;2023-05-15T12:05:17;99009.41;;;17.05;71.71
79129;BME280;68529;43.286;23.360;2023-05-15T12:07:43;99008.56;;;17.04;71.78
79129;BME280;68529;43.286;23.360;2023-05-15T12:10:09;99006.75;;;17.05;72.05
79129;BME280;68529;43.286;23.360;2023-05-15T12:12:41;99018.44;;;17.02;72.20
79129;BME280;68529;43.286;23.360;2023-05-15T12:15:08;99004.38;;;17.00;72.09
79129;BME280;68529;43.286;23.360;2023-05-15T12:17:36;99012.56;;;16.97;72.03
79129;BME280;68529;43.286;23.360;2023-05-15T12:20:02;98997.59;;;16.96;72.21
79129;BME280;68529;43.286;23.360;2023-05-15T12:22:35;98992.28;;;16.96;72.35
79129;BME280;68529;43.286;23.360;2023-05-15T12:25:01;98995.59;;;17.00;72.30
79129;BME280;68529;43.286;23.360;2023-05-15T12:27:26;98989.31;;;17.01;72.29
79129;BME280;68529;43.286;23.360;2023-05-15T12:29:52;98989.03;;;17.05;72.06
79129;BME280;68529;43.286;23.360;2023-05-15T12:32:18;98975.59;;;17.08;72.14
79129;BME280;68529;43.286;23.360;2023-05-15T12:34:44;98980.69;;;17.11;72.27
79129;BME280;68529;43.286;23.360;2023-05-15T12:37:11;98983.13;;;17.14;72.13
79129;BME280;68529;43.286;23.360;2023-05-15T12:39:49;98981.53;;;17.12;72.14
79129;BME280;68529;43.286;23.360;2023-05-15T12:42:14;98987.81;;;17.11;72.20
79129;BME280;68529;43.286;23.360;2023-05-15T12:44:41;98973.47;;;17.13;72.46
79129;BME280;68529;43.286;23.360;2023-05-15T12:47:07;98962.00;;;17.13;72.26
79129;BME280;68529;43.286;23.360;2023-05-15T12:49:35;98959.34;;;17.13;72.25
79129;BME280;68529;43.286;23.360;2023-05-15T12:52:07;98952.97;;;17.15;72.17
79129;BME280;68529;43.286;23.360;2023-05-15T12:54:40;98945.88;;;17.16;72.36
79129;BME280;68529;43.286;23.360;2023-05-15T12:57:07;98935.16;;;17.17;72.22
79129;BME280;68529;43.286;23.360;2023-05-15T12:59:33;98929.94;;;17.16;72.40
79129;BME280;68529;43.286;23.360;2023-05-15T13:01:58;98934.09;;;17.20;72.73
79129;BME280;68529;43.286;23.360;2023-05-15T13:04:24;98928.69;;;17.21;72.53
79129;BME280;68529;43.286;23.360;2023-05-15T13:06:49;98926.78;;;17.23;72.40
79129;BME280;68529;43.286;23.360;2023-05-15T13:09:22;98910.00;;;17.23;72.16
79129;BME280;68529;43.286;23.360;2023-05-15T13:11:49;98907.53;;;17.20;72.45
79129;BME280;68529;43.286;23.360;2023-05-15T13:14:18;98907.34;;;17.23;72.56
79129;BME280;68529;43.286;23.360;2023-05-15T13:16:45;98905.47;;;17.25;72.55
79129;BME280;68529;43.286;23.360;2023-05-15T13:19:11;98916.91;;;17.25;72.43
79129;BME280;68529;43.286;23.360;2023-05-15T13:21:37;98922.97;;;17.27;72.41
79129;BME280;68529;43.286;23.360;2023-05-15T13:24:02;98919.16;;;17.31;72.43
79129;BME280;68529;43.286;23.360;2023-05-15T13:26:28;98909.94;;;17.37;72.43
79129;BME280;68529;43.286;23.360;2023-05-15T13:28:53;98916.00;;;17.39;72.41
79129;BME280;68529;43.286;23.360;2023-05-15T13:31:19;98908.03;;;17.39;72.57
79129;BME280;68529;43.286;23.360;2023-05-15T13:33:44;98911.44;;;17.41;72.66
79129;BME280;68529;43.286;23.360;2023-05-15T13:36:10;98905.94;;;17.44;72.51
79129;BME280;68529;43.286;23.360;2023-05-15T13:38:36;98899.75;;;17.43;72.62
79129;BME280;68529;43.286;23.360;2023-05-15T13:41:03;98894.44;;;17.43;72.82
79129;BME280;68529;43.286;23.360;2023-05-15T13:43:28;98890.84;;;17.44;73.00
79129;BME280;68529;43.286;23.360;2023-05-15T13:45:53;98887.22;;;17.45;72.96
79129;BME280;68529;43.286;23.360;2023-05-15T13:48:19;98897.97;;;17.44;73.00
79129;BME280;68529;43.286;23.360;2023-05-15T13:50:44;98883.81;;;17.43;73.16
79129;BME280;68529;43.286;23.360;2023-05-15T13:53:10;98889.22;;;17.42;73.21
79129;BME280;68529;43.286;23.360;2023-05-15T13:55:41;98903.56;;;17.39;73.48
79129;BME280;68529;43.286;23.360;2023-05-15T13:58:07;98906.97;;;17.41;73.45
79129;BME280;68529;43.286;23.360;2023-05-15T14:00:32;98911.31;;;17.42;73.60
79129;BME280;68529;43.286;23.360;2023-05-15T14:02:57;98914.63;;;17.46;73.64
79129;BME280;68529;43.286;23.360;2023-05-15T14:05:23;98921.66;;;17.47;73.64
79129;BME280;68529;43.286;23.360;2023-05-15T14:07:48;98914.63;;;17.46;73.77
79129;BME280;68529;43.286;23.360;2023-05-15T14:10:13;98915.47;;;17.46;73.66
79129;BME280;68529;43.286;23.360;2023-05-15T14:12:39;98909.72;;;17.40;73.56
79129;BME280;68529;43.286;23.360;2023-05-15T14:15:05;98904.00;;;17.33;73.50
79129;BME280;68529;43.286;23.360;2023-05-15T14:17:30;98913.56;;;17.36;73.29
79129;BME280;68529;43.286;23.360;2023-05-15T14:19:56;98915.34;;;17.35;73.44
79129;BME280;68529;43.286;23.360;2023-05-15T14:22:21;98916.41;;;17.33;73.33
79129;BME280;68529;43.286;23.360;2023-05-15T14:24:49;98905.88;;;17.31;73.29
79129;BME280;68529;43.286;23.360;2023-05-15T14:27:15;98906.94;;;17.29;73.45
79129;BME280;68529;43.286;23.360;2023-05-15T14:29:41;98902.91;;;17.23;73.71
79129;BME280;68529;43.286;23.360;2023-05-15T14:32:08;98903.28;;;17.17;73.82
79129;BME280;68529;43.286;23.360;2023-05-15T14:34:34;98905.13;;;17.17;73.65
79129;BME280;68529;43.286;23.360;2023-05-15T14:36:59;98905.22;;;17.15;73.70
79129;BME280;68529;43.286;23.360;2023-05-15T14:39:25;98902.03;;;17.10;73.72
79129;BME280;68529;43.286;23.360;2023-05-15T14:41:50;98901.91;;;17.12;73.78
79129;BME280;68529;43.286;23.360;2023-05-15T14:44:16;98900.09;;;17.12;73.79
79129;BME280;68529;43.286;23.360;2023-05-15T14:46:41;98896.00;;;17.21;73.61
79129;BME280;68529;43.286;23.360;2023-05-15T14:49:07;98893.66;;;17.29;73.49
79129;BME280;68529;43.286;23.360;2023-05-15T14:51:32;98882.97;;;17.30;73.50
79129;BME280;68529;43.286;23.360;2023-05-15T14:53:58;98885.28;;;17.35;73.43
79129;BME280;68529;43.286;23.360;2023-05-15T14:56:23;98881.38;;;17.40;73.53